createdAt,value
2023-04-15T00:04:46.984Z,25.08
2023-04-15T00:10:31.574Z,25.01
2023-04-15T00:16:18.422Z,24.91
2023-04-15T00:22:01.555Z,24.84
2023-04-15T00:27:49.247Z,24.76
2023-04-15T00:33:31.596Z,24.65
2023-04-15T00:38:44.294Z,24.56
2023-04-15T00:44:32.959Z,24.46
2023-04-15T00:50:18.738Z,24.34
2023-04-15T00:56:05.092Z,24.26
2023-04-15T01:01:53.249Z,24.16
2023-04-15T01:07:10.056Z,24.11
2023-04-15T01:13:01.640Z,24.00
2023-04-15T01:18:10.529Z,23.96
2023-04-15T01:23:20.250Z,23.88
2023-04-15T01:28:45.396Z,23.80
2023-04-15T01:34:02.974Z,23.79
2023-04-15T01:39:52.573Z,23.72
2023-04-15T01:45:19.718Z,23.62
2023-04-15T01:50:55.417Z,23.57
2023-04-15T01:56:48.999Z,23.52
2023-04-15T02:01:59.774Z,23.49
2023-04-15T02:07:42.206Z,23.40
2023-04-15T02:13:12.706Z,23.32
2023-04-15T02:18:35.109Z,23.24
2023-04-15T02:24:25.547Z,23.21
2023-04-15T02:29:15.075Z,23.13
2023-04-15T02:34:22.956Z,23.08
2023-04-15T02:39:30.479Z,23.05
2023-04-15T02:44:37.752Z,22.95
2023-04-15T02:49:48.073Z,22.90
2023-04-15T02:54:55.519Z,22.81
2023-04-15T03:00:02.855Z,22.78
2023-04-15T03:05:10.273Z,22.67
2023-04-15T03:10:18.471Z,22.64
2023-04-15T03:15:25.774Z,22.51
2023-04-15T03:20:33.137Z,22.49
2023-04-15T03:25:40.305Z,22.37
2023-04-15T03:30:47.523Z,22.35
2023-04-15T03:35:54.820Z,22.44
2023-04-15T03:41:02.098Z,22.39
2023-04-15T03:46:09.337Z,22.27
2023-04-15T03:51:16.532Z,22.24
2023-04-15T03:56:23.731Z,22.22
2023-04-15T04:01:31.006Z,22.14
2023-04-15T04:06:38.306Z,22.13
2023-04-15T04:11:45.577Z,22.07
2023-04-15T04:16:52.817Z,22.10
2023-04-15T04:21:59.973Z,22.02
2023-04-15T04:27:07.215Z,21.93
2023-04-15T04:32:14.542Z,21.94
2023-04-15T04:37:21.713Z,21.90
2023-04-15T04:42:28.880Z,21.79
2023-04-15T04:47:36.150Z,21.68
2023-04-15T04:52:43.352Z,21.66
2023-04-15T04:57:50.544Z,21.72
2023-04-15T05:02:57.932Z,21.62
2023-04-15T05:08:05.305Z,21.61
2023-04-15T05:13:12.580Z,21.59
2023-04-15T05:18:19.828Z,21.54
2023-04-15T05:23:27.079Z,21.54
2023-04-15T05:28:34.382Z,21.54
2023-04-15T05:33:42.024Z,21.58
2023-04-15T05:38:49.545Z,21.53
2023-04-15T05:44:06.125Z,21.54
2023-04-15T05:49:13.954Z,21.54
2023-04-15T05:54:21.389Z,21.43
2023-04-15T05:59:29.075Z,21.33
2023-04-15T06:04:44.882Z,21.16
2023-04-15T06:09:52.445Z,21.16
2023-04-15T06:15:07.515Z,21.16
2023-04-15T06:20:15.009Z,21.11
2023-04-15T06:25:57.975Z,21.07
2023-04-15T06:31:08.720Z,21.06
2023-04-15T06:36:56.387Z,21.10
2023-04-15T06:42:12.052Z,21.13
2023-04-15T06:47:37.135Z,21.09
2023-04-15T06:52:32.018Z,21.06
2023-04-15T06:57:39.323Z,21.00
2023-04-15T07:02:46.687Z,20.99
2023-04-15T07:07:54.111Z,20.93
2023-04-15T07:13:11.248Z,20.86
2023-04-15T07:18:53.679Z,20.86
2023-04-15T07:24:01.141Z,20.91
2023-04-15T07:29:16.272Z,20.88
2023-04-15T07:35:05.665Z,20.85
2023-04-15T07:40:28.325Z,20.79
2023-04-15T07:45:36.087Z,20.85
2023-04-15T07:51:02.290Z,20.91
2023-04-15T07:56:09.974Z,20.85
2023-04-15T08:01:52.553Z,20.81
2023-04-15T08:07:39.321Z,20.80
2023-04-15T08:12:46.589Z,20.84
2023-04-15T08:17:54.117Z,20.78
2023-04-15T08:23:06.267Z,20.83
2023-04-15T08:28:28.942Z,20.81
2023-04-15T08:33:36.289Z,20.89
2023-04-15T08:38:43.455Z,21.10
2023-04-15T08:43:50.715Z,21.35
2023-04-15T08:48:57.986Z,21.52
2023-04-15T08:54:05.092Z,21.68
2023-04-15T08:59:12.278Z,21.83
2023-04-15T09:04:19.672Z,22.01
2023-04-15T09:09:26.652Z,22.12
2023-04-15T09:14:33.914Z,22.25
2023-04-15T09:19:42.723Z,22.36
2023-04-15T09:24:49.884Z,22.46
2023-04-15T09:29:57.103Z,22.58
2023-04-15T09:35:04.281Z,22.75
2023-04-15T09:40:11.443Z,22.82
2023-04-15T09:45:18.637Z,22.93
2023-04-15T09:50:25.840Z,23.00
2023-04-15T09:55:32.995Z,23.07
2023-04-15T10:00:40.309Z,23.13
2023-04-15T10:05:48.806Z,23.16
2023-04-15T10:10:55.969Z,23.29
2023-04-15T10:16:03.220Z,23.38
2023-04-15T10:21:10.515Z,23.42
2023-04-15T10:26:17.775Z,23.55
2023-04-15T10:31:24.925Z,23.57
2023-04-15T10:36:32.116Z,23.47
2023-04-15T10:41:39.299Z,23.58
2023-04-15T10:46:46.625Z,23.61
2023-04-15T10:51:53.815Z,23.67
2023-04-15T10:57:00.946Z,23.75
2023-04-15T11:02:08.327Z,23.72
2023-04-15T11:07:15.543Z,23.80
2023-04-15T11:12:22.709Z,23.76
2023-04-15T11:17:30.024Z,23.75
2023-04-15T11:22:37.176Z,23.71
2023-04-15T11:27:44.333Z,23.72
2023-04-15T11:32:51.541Z,23.71
2023-04-15T11:37:58.745Z,23.74
2023-04-15T11:43:06.006Z,23.66
2023-04-15T11:48:13.252Z,23.58
2023-04-15T11:53:20.513Z,23.60
2023-04-15T11:58:27.760Z,23.58
2023-04-15T12:03:35.078Z,23.62
2023-04-15T12:08:42.266Z,23.67
2023-04-15T12:13:49.482Z,23.66
2023-04-15T12:18:56.708Z,23.67
2023-04-15T12:24:04.366Z,23.66
2023-04-15T12:29:11.095Z,23.76
2023-04-15T12:34:20.184Z,23.83
2023-04-15T12:39:29.281Z,23.88
2023-04-15T12:44:34.650Z,23.89
2023-04-15T12:49:41.862Z,23.97
2023-04-15T12:54:49.155Z,23.98
2023-04-15T12:59:56.429Z,24.03
2023-04-15T13:05:03.650Z,24.12
2023-04-15T13:10:10.964Z,24.19
2023-04-15T13:15:18.703Z,24.19
2023-04-15T13:20:25.950Z,24.24
2023-04-15T13:25:33.191Z,24.29
2023-04-15T13:30:40.509Z,24.39
2023-04-15T13:35:47.692Z,24.35
2023-04-15T13:40:55.153Z,24.44
2023-04-15T13:46:02.524Z,24.47
2023-04-15T13:51:12.970Z,24.40
2023-04-15T13:56:20.250Z,24.39
2023-04-15T14:01:27.551Z,24.38
2023-04-15T14:06:34.744Z,24.34
2023-04-15T14:11:42.173Z,24.32
2023-04-15T14:16:49.534Z,24.34
2023-04-15T14:21:56.769Z,24.41
2023-04-15T14:27:06.019Z,24.41
2023-04-15T14:32:14.404Z,24.45
2023-04-15T14:37:20.726Z,24.49
2023-04-15T14:42:28.266Z,24.49
2023-04-15T14:47:35.533Z,24.55
2023-04-15T14:52:42.816Z,24.55
2023-04-15T14:57:50.309Z,24.57
2023-04-15T15:02:57.636Z,24.58
2023-04-15T15:08:04.849Z,24.60
2023-04-15T15:13:12.252Z,24.62
2023-04-15T15:18:19.794Z,24.59
2023-04-15T15:23:27.729Z,24.62
2023-04-15T15:28:35.068Z,24.63
2023-04-15T15:33:42.236Z,24.65
2023-04-15T15:38:49.456Z,24.68
2023-04-15T15:43:56.705Z,24.71
2023-04-15T15:49:04.038Z,24.74
2023-04-15T15:54:11.127Z,24.73
2023-04-15T15:59:18.344Z,24.73
2023-04-15T16:04:25.768Z,24.75
2023-04-15T16:09:33.134Z,24.77
2023-04-15T16:14:40.525Z,24.78
2023-04-15T16:19:58.001Z,24.79
2023-04-15T16:24:54.940Z,24.77
2023-04-15T16:30:02.199Z,24.78
2023-04-15T16:35:09.628Z,24.76
2023-04-15T16:40:17.251Z,24.76
2023-04-15T16:45:27.932Z,24.84
2023-04-15T16:50:35.433Z,24.85
2023-04-15T16:55:43.071Z,24.88
2023-04-15T17:00:50.485Z,24.89
2023-04-15T17:05:57.644Z,24.93
2023-04-15T17:11:04.850Z,24.99
2023-04-15T17:16:12.139Z,25.00
2023-04-15T17:21:19.591Z,25.05
2023-04-15T17:26:27.011Z,25.09
2023-04-15T17:31:34.484Z,24.89
2023-04-15T17:36:41.718Z,24.60
2023-04-15T17:41:49.426Z,24.45
2023-04-15T17:46:57.205Z,24.39
2023-04-15T17:52:04.475Z,24.28
2023-04-15T17:57:11.966Z,24.25
2023-04-15T18:02:19.817Z,24.30
2023-04-15T18:07:27.061Z,24.40
2023-04-15T18:12:34.702Z,24.47
2023-04-15T18:17:42.351Z,24.53
2023-04-15T18:22:50.036Z,24.62
2023-04-15T18:27:57.539Z,24.74
2023-04-15T18:33:05.189Z,24.87
2023-04-15T18:38:12.708Z,24.99
2023-04-15T18:43:20.396Z,25.08
2023-04-15T18:48:28.072Z,25.10
2023-04-15T18:53:35.723Z,25.10
2023-04-15T18:59:26.317Z,25.10
2023-04-15T19:03:51.181Z,25.13
2023-04-15T19:08:58.595Z,25.15
2023-04-15T19:14:05.826Z,25.15
2023-04-15T19:19:13.478Z,25.24
2023-04-15T19:24:20.816Z,25.30
2023-04-15T19:29:29.131Z,25.30
2023-04-15T19:34:36.952Z,25.33
2023-04-15T19:39:44.573Z,25.31
2023-04-15T19:44:52.279Z,25.36
2023-04-15T19:50:00.035Z,25.43
2023-04-15T19:55:07.722Z,25.48
2023-04-15T20:00:15.332Z,25.53
2023-04-15T20:05:22.997Z,25.57
2023-04-15T20:10:30.558Z,25.65
2023-04-15T20:15:38.294Z,25.66
2023-04-15T20:20:45.910Z,25.74
2023-04-15T20:25:53.495Z,25.77
2023-04-15T20:31:01.246Z,25.81
2023-04-15T20:36:09.890Z,25.77
2023-04-15T20:41:17.585Z,25.83
2023-04-15T20:46:27.176Z,25.92
2023-04-15T20:51:32.523Z,25.93
2023-04-15T20:56:40.216Z,26.02
2023-04-15T21:01:47.670Z,26.13
2023-04-15T21:06:56.099Z,26.20
2023-04-15T21:12:03.327Z,26.20
2023-04-15T21:17:11.374Z,26.24
2023-04-15T21:22:17.902Z,26.30
2023-04-15T21:27:25.085Z,26.35
2023-04-15T21:32:32.277Z,26.40
2023-04-15T21:37:39.550Z,26.47
2023-04-15T21:42:47.343Z,26.56
2023-04-15T21:48:05.845Z,26.57
2023-04-15T21:53:01.910Z,26.53
2023-04-15T21:58:09.252Z,26.58
2023-04-15T22:03:16.611Z,26.56
2023-04-15T22:08:23.794Z,26.55
2023-04-15T22:13:31.030Z,26.50
2023-04-15T22:18:38.323Z,26.48
2023-04-15T22:23:45.586Z,26.51
2023-04-15T22:28:52.830Z,26.61
2023-04-15T22:34:00.176Z,26.64
2023-04-15T22:39:07.899Z,26.63
2023-04-15T22:44:14.924Z,26.70
2023-04-15T22:49:22.121Z,26.73
2023-04-15T22:54:29.863Z,26.77
2023-04-15T22:59:37.133Z,26.73
2023-04-15T23:04:44.589Z,26.79
2023-04-15T23:09:56.021Z,26.80
2023-04-15T23:15:04.180Z,26.84
2023-04-15T23:20:46.622Z,26.81
2023-04-15T23:26:17.086Z,26.72
2023-04-15T23:31:12.444Z,26.67
2023-04-15T23:36:35.444Z,26.56
2023-04-15T23:42:03.928Z,26.42
2023-04-15T23:46:56.053Z,26.31
2023-04-15T23:52:12.144Z,26.13
2023-04-15T23:57:40.816Z,26.01
